Time;durP1;ratioP1;P1;durP2;ratioP2;P2;SDS_P1;SDS_P2;PMS_P1;PMS_P2;Temp;Humidity;BMP_temperature;BMP_pressure;BME280_temperature;BME280_humidity;BME280_pressure;Samples;Min_cycle;Max_cycle;Signal;HPM_P1;HPM_P2
2021/07/05 00:02:08;;;;;;;13.73;10.50;;;15.50;99.90;;;;;;4435519;32;20190;-63
2021/07/05 00:04:36;;;;;;;18.23;11.07;;;15.60;99.90;;;;;;4436173;32;20218;-61
2021/07/05 00:07:04;;;;;;;14.53;11.20;;;15.80;99.90;;;;;;4425734;32;20438;-62
2021/07/05 00:09:31;;;;;;;16.47;11.83;;;15.90;99.90;;;;;;4435303;32;20144;-61
2021/07/05 00:11:58;;;;;;;16.00;11.17;;;15.90;99.90;;;;;;4436549;32;20143;-62
2021/07/05 00:14:25;;;;;;;15.77;11.87;;;15.90;99.90;;;;;;4434958;32;20151;-61
2021/07/05 00:16:53;;;;;;;17.93;11.97;;;16.00;99.90;;;;;;4437164;32;20161;-62
2021/07/05 00:19:20;;;;;;;14.87;12.57;;;16.10;99.90;;;;;;4436792;32;20230;-62
2021/07/05 00:21:50;;;;;;;20.03;13.87;;;16.20;99.90;;;;;;4437898;32;20533;-62
2021/07/05 00:24:17;;;;;;;15.53;12.57;;;16.20;99.90;;;;;;4435250;32;20230;-62
2021/07/05 00:26:44;;;;;;;19.73;13.63;;;16.20;99.90;;;;;;4436543;32;20179;-64
2021/07/05 00:29:11;;;;;;;16.77;14.23;;;16.20;99.90;;;;;;4423723;32;20155;-64
2021/07/05 00:31:38;;;;;;;18.90;16.27;;;16.10;99.90;;;;;;4438507;32;20601;-63
2021/07/05 00:34:05;;;;;;;18.30;14.47;;;16.10;99.90;;;;;;4437968;32;20152;-63
2021/07/05 00:36:32;;;;;;;17.00;13.97;;;16.00;99.90;;;;;;4438011;32;20158;-64
2021/07/05 00:39:00;;;;;;;18.10;13.97;;;16.00;99.90;;;;;;4424751;32;20155;-63
2021/07/05 00:41:29;;;;;;;18.43;14.27;;;16.00;99.90;;;;;;4424313;32;20242;-64
2021/07/05 00:43:56;;;;;;;18.97;13.97;;;16.00;99.90;;;;;;4431350;32;20170;-63
2021/07/05 00:46:23;;;;;;;16.90;13.27;;;16.00;99.90;;;;;;4430578;32;20144;-64
2021/07/05 00:48:51;;;;;;;21.57;15.40;;;16.00;99.90;;;;;;4438434;32;20166;-64
2021/07/05 00:51:17;;;;;;;17.63;13.87;;;16.00;99.90;;;;;;4424276;32;20151;-65
2021/07/05 00:53:45;;;;;;;14.03;12.53;;;16.00;99.90;;;;;;4434871;32;20195;-65
2021/07/05 00:56:13;;;;;;;16.93;12.97;;;16.00;99.90;;;;;;4437592;32;20663;-65
2021/07/05 00:58:40;;;;;;;16.43;12.77;;;16.00;99.90;;;;;;4438596;32;20147;-65
2021/07/05 01:01:07;;;;;;;19.83;14.23;;;16.00;99.90;;;;;;4434084;32;20192;-65
2021/07/05 01:03:34;;;;;;;15.27;12.57;;;16.00;99.90;;;;;;4423508;32;20232;-66
2021/07/05 01:06:02;;;;;;;18.67;13.60;;;16.10;99.90;;;;;;4424634;32;20228;-66
2021/07/05 01:08:29;;;;;;;15.90;12.17;;;16.10;99.90;;;;;;4423126;32;20139;-67
2021/07/05 01:10:56;;;;;;;18.43;12.53;;;16.10;99.90;;;;;;4424907;32;20163;-66
2021/07/05 01:13:25;;;;;;;18.03;12.50;;;16.10;99.90;;;;;;4435267;32;20147;-66
2021/07/05 01:15:51;;;;;;;14.53;12.23;;;16.10;99.90;;;;;;4433522;32;20143;-67
2021/07/05 01:18:19;;;;;;;20.73;13.87;;;16.00;99.90;;;;;;4438273;32;20161;-65
2021/07/05 01:20:45;;;;;;;13.67;11.83;;;16.10;99.90;;;;;;4435837;32;20147;-66
2021/07/05 01:23:14;;;;;;;18.63;12.33;;;16.10;99.90;;;;;;4424759;32;20185;-67
2021/07/05 01:25:41;;;;;;;14.23;11.97;;;16.00;99.90;;;;;;4437788;32;20154;-66
2021/07/05 01:28:12;;;;;;;13.43;11.37;;;16.00;99.90;;;;;;4437458;32;20601;-65
2021/07/05 01:30:40;;;;;;;14.47;11.47;;;15.90;99.90;;;;;;4437080;32;20151;-63
2021/07/05 01:33:09;;;;;;;17.87;12.90;;;15.90;99.90;;;;;;4429780;32;20166;-63
2021/07/05 01:35:37;;;;;;;12.93;10.03;;;15.90;99.90;;;;;;4424904;32;20164;-62
2021/07/05 01:38:10;;;;;;;14.83;10.97;;;16.00;99.90;;;;;;4434044;32;20543;-65
2021/07/05 01:40:38;;;;;;;13.40;10.90;;;15.90;99.90;;;;;;4423790;32;20151;-66
2021/07/05 01:43:05;;;;;;;18.27;12.63;;;16.00;99.90;;;;;;4422603;32;20140;-65
2021/07/05 01:45:33;;;;;;;15.40;11.70;;;16.00;99.90;;;;;;4424446;32;20491;-63
2021/07/05 01:48:01;;;;;;;14.10;11.60;;;16.00;99.90;;;;;;4437331;32;20182;-64
2021/07/05 01:50:29;;;;;;;17.83;13.43;;;16.00;99.90;;;;;;4426862;32;20216;-63
2021/07/05 01:52:56;;;;;;;14.17;11.97;;;16.00;99.90;;;;;;4430663;32;20204;-63
2021/07/05 01:55:30;;;;;;;14.53;12.23;;;16.00;99.90;;;;;;4428910;32;20155;-62
2021/07/05 01:58:00;;;;;;;13.30;11.10;;;15.90;99.90;;;;;;4430180;32;20170;-64
2021/07/05 02:00:27;;;;;;;16.93;13.30;;;15.90;99.90;;;;;;4428151;32;20170;-62
2021/07/05 02:03:00;;;;;;;17.80;13.33;;;15.90;99.90;;;;;;4427457;32;21424;-62
2021/07/05 02:05:30;;;;;;;17.47;14.00;;;15.90;99.90;;;;;;4426661;32;20175;-63
2021/07/05 02:08:00;;;;;;;15.47;12.90;;;15.90;99.90;;;;;;4425792;32;20174;-65
2021/07/05 02:10:29;;;;;;;17.53;13.57;;;15.90;99.90;;;;;;4422244;32;20168;-64
2021/07/05 02:12:57;;;;;;;16.60;13.30;;;15.90;99.90;;;;;;4421896;32;20171;-63
2021/07/05 02:15:26;;;;;;;21.27;15.03;;;15.90;99.90;;;;;;4424610;32;20215;-65
2021/07/05 02:17:53;;;;;;;25.23;11.77;;;16.00;99.90;;;;;;4434787;32;20204;-63
2021/07/05 02:20:23;;;;;;;22.17;11.10;;;16.00;99.90;;;;;;4434757;32;20233;-64
2021/07/05 02:22:51;;;;;;;15.87;9.97;;;15.90;99.90;;;;;;4431157;32;20197;-64
2021/07/05 02:25:20;;;;;;;15.77;8.77;;;15.90;99.90;;;;;;4428402;32;20216;-63
2021/07/05 02:27:48;;;;;;;15.60;7.93;;;15.90;99.90;;;;;;4427404;32;20226;-63
2021/07/05 02:30:18;;;;;;;13.10;7.33;;;15.90;99.90;;;;;;4436765;32;20185;-63
2021/07/05 02:32:47;;;;;;;15.80;7.50;;;15.90;99.90;;;;;;4437418;32;20198;-63
2021/07/05 02:35:16;;;;;;;11.37;6.80;;;15.90;99.90;;;;;;4436959;32;20218;-64
2021/07/05 02:37:45;;;;;;;16.00;7.97;;;15.90;99.90;;;;;;4434257;32;20155;-63
2021/07/05 02:40:45;;;;;;;15.17;7.10;;;15.90;99.90;;;;;;4423091;32;20209;-63
2021/07/05 02:43:21;;;;;;;12.23;7.00;;;15.90;99.90;;;;;;4421652;32;20232;-63
2021/07/05 02:45:50;;;;;;;13.33;6.80;;;16.00;99.90;;;;;;4427736;32;20223;-63
2021/07/05 02:48:21;;;;;;;15.47;7.50;;;15.90;99.90;;;;;;4428414;32;20578;-64
2021/07/05 02:50:54;;;;;;;18.20;7.37;;;15.90;99.90;;;;;;4428406;32;20170;-65
2021/07/05 02:53:28;;;;;;;12.37;5.97;;;15.90;99.90;;;;;;4424180;32;20157;-60
2021/07/05 02:55:55;;;;;;;15.67;6.43;;;15.80;99.90;;;;;;4421019;32;20213;-64
2021/07/05 02:58:23;;;;;;;13.80;6.63;;;15.80;99.90;;;;;;4423626;32;20170;-63
2021/07/05 03:00:52;;;;;;;17.33;6.40;;;15.60;99.90;;;;;;4436145;32;20222;-64
2021/07/05 03:03:20;;;;;;;13.23;6.50;;;15.60;99.90;;;;;;4429815;32;20159;-64
2021/07/05 03:05:47;;;;;;;15.27;6.90;;;15.50;99.90;;;;;;4400354;32;20172;-64
2021/07/05 03:08:14;;;;;;;16.73;6.23;;;15.40;99.90;;;;;;4390983;32;20179;-64
2021/07/05 03:10:44;;;;;;;16.67;6.13;;;15.30;99.90;;;;;;4388460;32;20867;-66
2021/07/05 03:13:13;;;;;;;16.73;7.03;;;15.30;99.90;;;;;;4390911;32;20223;-64
2021/07/05 03:15:40;;;;;;;18.50;7.93;;;15.30;99.90;;;;;;4391539;32;20183;-64
2021/07/05 03:18:07;;;;;;;10.73;5.63;;;15.30;99.90;;;;;;4386054;32;20536;-65
2021/07/05 03:20:37;;;;;;;12.53;6.17;;;15.30;99.90;;;;;;4378700;32;20159;-66
2021/07/05 03:23:06;;;;;;;11.77;5.40;;;15.30;99.90;;;;;;4376452;32;20556;-65
2021/07/05 03:25:36;;;;;;;12.93;5.80;;;15.30;99.90;;;;;;4382359;32;20164;-65
2021/07/05 03:28:05;;;;;;;10.17;4.97;;;15.30;99.90;;;;;;4390013;32;20461;-66
2021/07/05 03:30:36;;;;;;;11.53;5.17;;;15.30;99.90;;;;;;4387787;32;20169;-66
2021/07/05 03:33:03;;;;;;;11.47;5.77;;;15.20;99.90;;;;;;4384602;32;20160;-64
2021/07/05 03:35:31;;;;;;;10.70;5.27;;;15.30;99.90;;;;;;4377531;32;20231;-64
2021/07/05 03:37:59;;;;;;;9.97;5.13;;;15.30;99.90;;;;;;4382076;32;20179;-66
2021/07/05 03:40:30;;;;;;;14.43;6.17;;;15.30;99.90;;;;;;4387152;32;20159;-65
2021/07/05 03:43:00;;;;;;;8.77;4.93;;;15.20;99.90;;;;;;4390140;32;20227;-64
2021/07/05 03:45:29;;;;;;;9.93;5.20;;;15.10;99.90;;;;;;4390131;32;20155;-66
2021/07/05 03:48:00;;;;;;;12.10;5.27;;;15.10;99.90;;;;;;4389526;32;20156;-65
2021/07/05 03:50:28;;;;;;;10.10;5.50;;;15.00;99.90;;;;;;4387701;32;20215;-65
2021/07/05 03:52:58;;;;;;;16.97;5.97;;;15.00;99.90;;;;;;4389794;32;20275;-65
2021/07/05 03:55:30;;;;;;;9.47;5.03;;;15.00;99.90;;;;;;4390180;32;20166;-65
2021/07/05 03:57:57;;;;;;;15.50;6.20;;;15.00;99.90;;;;;;4294101;32;3075192;-64
2021/07/05 04:00:28;;;;;;;13.03;5.60;;;15.00;99.90;;;;;;4387399;32;20186;-64
2021/07/05 04:02:55;;;;;;;12.87;5.87;;;15.10;99.90;;;;;;4388947;32;20156;-66
2021/07/05 04:05:21;;;;;;;9.00;6.57;;;15.10;99.90;;;;;;4390828;32;20647;-65
2021/07/05 04:07:50;;;;;;;11.20;5.13;;;15.10;99.90;;;;;;4390047;32;20144;-65
2021/07/05 04:10:18;;;;;;;13.77;6.30;;;15.10;99.90;;;;;;4388276;32;20201;-65
2021/07/05 04:12:47;;;;;;;8.73;5.73;;;15.10;99.90;;;;;;4387510;32;20151;-64
2021/07/05 04:15:14;;;;;;;12.37;6.50;;;15.10;99.90;;;;;;4390549;32;20167;-64
2021/07/05 04:17:41;;;;;;;15.27;6.27;;;15.10;99.90;;;;;;4389532;32;20223;-66
2021/07/05 04:20:10;;;;;;;16.93;7.23;;;15.10;99.90;;;;;;4389640;32;20223;-66
2021/07/05 04:22:39;;;;;;;12.87;6.20;;;15.00;99.90;;;;;;4386750;32;20215;-65
2021/07/05 04:25:08;;;;;;;14.50;7.23;;;15.00;99.90;;;;;;4381869;32;20156;-63
2021/07/05 04:27:35;;;;;;;15.37;7.07;;;15.00;99.90;;;;;;4389190;32;20580;-63
2021/07/05 04:30:04;;;;;;;15.10;7.20;;;15.00;99.90;;;;;;4376448;32;20160;-64
2021/07/05 04:32:31;;;;;;;15.93;6.93;;;15.10;99.90;;;;;;4386217;32;20521;-63
2021/07/05 04:34:59;;;;;;;15.87;7.70;;;15.00;99.90;;;;;;4390214;32;20156;-63
2021/07/05 04:37:25;;;;;;;15.97;7.43;;;15.00;99.90;;;;;;4389397;32;20232;-65
2021/07/05 04:39:52;;;;;;;20.63;8.47;;;15.00;99.90;;;;;;4390212;32;20555;-64
2021/07/05 04:42:19;;;;;;;13.63;6.80;;;15.00;99.90;;;;;;4384029;32;20290;-62
2021/07/05 04:44:48;;;;;;;14.13;7.50;;;15.00;99.90;;;;;;4389952;32;20192;-64
2021/07/05 04:47:16;;;;;;;15.20;7.73;;;15.10;99.90;;;;;;4389507;32;20156;-63
2021/07/05 04:49:43;;;;;;;17.43;6.93;;;15.10;99.90;;;;;;4389611;32;20159;-66
2021/07/05 04:52:09;;;;;;;16.40;7.77;;;15.10;99.90;;;;;;4383517;32;20266;-65
2021/07/05 04:54:36;;;;;;;18.60;7.30;;;15.20;99.90;;;;;;4389537;32;20186;-65
2021/07/05 04:57:04;;;;;;;12.97;7.73;;;15.20;99.90;;;;;;4389147;32;20561;-63
2021/07/05 04:59:31;;;;;;;12.63;7.43;;;15.20;99.90;;;;;;4389878;32;20194;-66
2021/07/05 05:01:58;;;;;;;12.87;6.30;;;15.10;99.90;;;;;;4389100;32;20299;-62
2021/07/05 05:04:26;;;;;;;18.33;7.60;;;15.10;99.90;;;;;;4392199;32;20148;-63
2021/07/05 05:06:53;;;;;;;14.20;7.13;;;15.10;99.90;;;;;;4392383;32;20179;-64
2021/07/05 05:09:23;;;;;;;12.80;7.47;;;15.20;99.90;;;;;;4391290;32;20152;-63
2021/07/05 05:11:50;;;;;;;18.37;8.20;;;15.20;99.90;;;;;;4389766;32;20225;-64
2021/07/05 05:14:17;;;;;;;12.03;6.90;;;15.20;99.90;;;;;;4389833;32;20195;-64
2021/07/05 05:16:44;;;;;;;16.93;7.90;;;15.20;99.90;;;;;;4392497;32;20175;-63
2021/07/05 05:19:11;;;;;;;16.63;7.93;;;15.20;99.90;;;;;;4391183;32;20224;-64
2021/07/05 05:21:39;;;;;;;15.43;6.80;;;15.20;99.90;;;;;;4390606;32;20161;-63
2021/07/05 05:24:06;;;;;;;13.50;6.60;;;15.30;99.90;;;;;;4384775;32;20230;-63
2021/07/05 05:26:33;;;;;;;12.70;7.90;;;15.30;99.90;;;;;;4391895;32;20156;-63
2021/07/05 05:29:00;;;;;;;12.40;7.53;;;15.30;99.90;;;;;;4394800;32;20144;-63
2021/07/05 05:31:27;;;;;;;13.43;7.10;;;15.40;99.90;;;;;;4391933;32;20507;-63
2021/07/05 05:34:00;;;;;;;19.53;7.87;;;15.40;99.90;;;;;;4401715;32;20592;-63
2021/07/05 05:36:27;;;;;;;14.93;7.07;;;15.40;99.90;;;;;;4383208;32;20167;-62
2021/07/05 05:38:57;;;;;;;14.93;6.50;;;15.50;99.90;;;;;;4394847;32;20575;-62
2021/07/05 05:41:24;;;;;;;20.50;7.63;;;15.50;99.90;;;;;;4406616;32;20155;-62
2021/07/05 05:43:51;;;;;;;12.57;7.33;;;15.50;99.90;;;;;;4390227;32;20156;-63
2021/07/05 05:46:18;;;;;;;18.10;8.00;;;15.50;99.90;;;;;;4389908;32;20136;-63
2021/07/05 05:48:49;;;;;;;13.10;7.67;;;15.40;99.90;;;;;;4394782;32;20422;-63
2021/07/05 05:51:16;;;;;;;15.03;7.60;;;15.40;99.90;;;;;;4391794;32;20149;-62
2021/07/05 05:53:43;;;;;;;19.57;9.27;;;15.40;99.90;;;;;;4391588;32;20521;-63
2021/07/05 05:56:12;;;;;;;19.83;7.37;;;15.40;99.90;;;;;;4389922;32;20174;-63
2021/07/05 05:58:40;;;;;;;18.13;9.00;;;15.40;99.90;;;;;;4398590;32;20151;-63
2021/07/05 06:01:08;;;;;;;15.73;8.33;;;15.30;99.90;;;;;;4394028;32;20141;-63
2021/07/05 06:03:35;;;;;;;18.23;8.20;;;15.20;99.90;;;;;;4392257;32;20167;-63
2021/07/05 06:06:02;;;;;;;13.80;7.67;;;15.30;99.90;;;;;;4395731;32;20187;-63
2021/07/05 06:08:29;;;;;;;20.87;8.23;;;15.30;99.90;;;;;;4389084;32;20186;-63
2021/07/05 06:10:58;;;;;;;15.83;7.67;;;15.40;99.90;;;;;;4393243;32;20170;-63
2021/07/05 06:13:27;;;;;;;16.80;7.80;;;15.40;99.90;;;;;;4392474;32;20144;-63
2021/07/05 06:15:55;;;;;;;16.80;7.80;;;15.50;99.90;;;;;;4391512;32;20193;-63
2021/07/05 06:18:22;;;;;;;21.00;10.10;;;15.70;99.90;;;;;;4389270;32;20148;-62
2021/07/05 06:20:49;;;;;;;18.53;9.63;;;15.80;99.90;;;;;;4388464;32;20492;-62
2021/07/05 06:23:20;;;;;;;19.13;8.50;;;15.90;99.90;;;;;;4395589;32;20495;-60
2021/07/05 06:25:48;;;;;;;16.57;7.60;;;16.00;99.90;;;;;;4394968;32;20193;-62
2021/07/05 06:28:16;;;;;;;19.00;8.60;;;16.30;99.90;;;;;;4389633;32;20166;-64
2021/07/05 06:30:44;;;;;;;19.47;9.23;;;16.70;99.90;;;;;;4386854;32;20171;-62
2021/07/05 06:33:13;;;;;;;15.10;7.77;;;17.00;99.90;;;;;;4391390;32;20172;-63
2021/07/05 06:35:41;;;;;;;20.60;8.77;;;17.10;99.90;;;;;;4388655;32;20143;-63
2021/07/05 06:38:08;;;;;;;12.90;7.93;;;17.30;99.90;;;;;;4394359;32;20524;-63
2021/07/05 06:40:35;;;;;;;15.87;8.23;;;17.60;99.90;;;;;;4399038;32;20175;-62
2021/07/05 06:43:02;;;;;;;23.80;8.40;;;18.00;99.90;;;;;;4393486;32;20658;-63
2021/07/05 06:45:29;;;;;;;15.13;7.57;;;18.30;99.90;;;;;;4383560;32;20161;-63
2021/07/05 06:48:00;;;;;;;18.50;8.10;;;18.20;99.90;;;;;;4388619;32;20167;-62
2021/07/05 06:50:29;;;;;;;16.07;7.70;;;18.30;99.90;;;;;;4389845;32;20188;-61
2021/07/05 06:52:57;;;;;;;19.03;8.07;;;18.50;99.90;;;;;;4397211;32;20227;-62
2021/07/05 06:55:24;;;;;;;17.87;7.80;;;18.50;99.90;;;;;;4387039;32;20144;-61
2021/07/05 06:57:52;;;;;;;15.93;7.90;;;18.70;99.90;;;;;;4399851;32;20143;-62
2021/07/05 07:00:20;;;;;;;14.70;8.17;;;18.80;99.90;;;;;;4389937;32;20590;-62
2021/07/05 07:02:46;;;;;;;18.97;7.63;;;18.80;99.90;;;;;;4393401;32;20148;-62
2021/07/05 07:05:17;;;;;;;11.70;7.33;;;19.00;99.90;;;;;;4387023;32;20584;-62
2021/07/05 07:07:45;;;;;;;14.17;7.90;;;19.20;99.90;;;;;;4385604;32;20178;-62
2021/07/05 07:10:14;;;;;;;14.87;7.80;;;19.70;99.90;;;;;;4384463;32;20782;-62
2021/07/05 07:12:45;;;;;;;10.60;6.23;;;20.00;99.90;;;;;;4386562;32;20166;-62
2021/07/05 07:15:13;;;;;;;13.80;7.80;;;20.00;99.90;;;;;;4390247;32;20148;-63
2021/07/05 07:17:45;;;;;;;9.87;6.60;;;19.90;99.90;;;;;;4388993;32;20276;-63
2021/07/05 07:20:15;;;;;;;12.17;6.90;;;19.60;99.90;;;;;;4390232;32;20190;-62
2021/07/05 07:22:42;;;;;;;14.23;6.17;;;19.50;99.90;;;;;;4390601;32;20145;-63
2021/07/05 07:25:12;;;;;;;10.57;6.43;;;19.50;99.90;;;;;;4388704;32;20179;-64
2021/07/05 07:27:39;;;;;;;12.43;7.70;;;19.60;99.90;;;;;;4384474;32;20166;-63
2021/07/05 07:30:08;;;;;;;16.50;8.03;;;19.50;99.90;;;;;;4387773;32;20215;-62
2021/07/05 07:32:35;;;;;;;15.27;7.47;;;19.60;99.90;;;;;;4389432;32;20175;-63
2021/07/05 07:35:02;;;;;;;15.43;7.33;;;19.90;99.90;;;;;;4389598;32;20144;-64
2021/07/05 07:37:32;;;;;;;12.30;7.10;;;20.00;99.90;;;;;;4388912;32;20587;-63
2021/07/05 07:40:01;;;;;;;16.43;7.77;;;20.20;99.90;;;;;;4388232;32;20144;-64
2021/07/05 07:42:28;;;;;;;16.50;8.33;;;20.20;99.90;;;;;;4389797;32;20175;-63
2021/07/05 07:44:55;;;;;;;15.20;8.07;;;19.90;99.90;;;;;;4389908;32;20468;-61
2021/07/05 07:47:21;;;;;;;18.20;9.20;;;20.00;99.90;;;;;;4388975;32;20601;-62
2021/07/05 07:49:49;;;;;;;16.80;8.23;;;20.20;99.90;;;;;;4389353;32;20201;-62
2021/07/05 07:52:18;;;;;;;12.93;7.53;;;20.20;99.90;;;;;;4390257;32;20465;-62
2021/07/05 07:54:46;;;;;;;13.93;8.07;;;19.80;99.90;;;;;;4388538;32;20235;-62
2021/07/05 07:57:16;;;;;;;14.43;8.23;;;19.80;99.90;;;;;;4388039;32;20155;-62
2021/07/05 07:59:43;;;;;;;17.40;8.40;;;19.70;99.90;;;;;;4389017;32;20175;-64
2021/07/05 08:02:11;;;;;;;17.23;8.67;;;19.50;99.90;;;;;;4389519;32;20144;-63
2021/07/05 08:04:38;;;;;;;12.27;7.10;;;19.30;99.90;;;;;;4389139;32;20155;-62
2021/07/05 08:07:05;;;;;;;15.03;7.97;;;19.30;99.90;;;;;;4388014;32;20210;-63
2021/07/05 08:09:32;;;;;;;12.67;8.10;;;20.20;99.90;;;;;;4388838;32;20152;-63
2021/07/05 08:12:01;;;;;;;14.53;7.63;;;22.10;99.90;;;;;;4387043;32;20586;-63
2021/07/05 08:14:28;;;;;;;12.27;7.67;;;22.90;99.90;;;;;;4388954;32;20195;-63
2021/07/05 08:16:55;;;;;;;11.23;6.70;;;24.80;99.90;;;;;;4388872;32;20443;-62
2021/07/05 08:19:22;;;;;;;17.30;8.23;;;24.40;99.90;;;;;;4389458;32;20183;-63
2021/07/05 08:21:49;;;;;;;20.40;7.83;;;23.70;99.90;;;;;;4389101;32;20156;-63
2021/07/05 08:24:15;;;;;;;13.57;7.63;;;22.90;99.90;;;;;;4387315;32;20183;-63
2021/07/05 08:26:42;;;;;;;15.23;7.30;;;22.30;99.90;;;;;;4384858;32;20273;-63
2021/07/05 08:29:11;;;;;;;11.63;6.83;;;21.90;99.90;;;;;;4381141;32;20165;-64
2021/07/05 08:31:38;;;;;;;20.77;8.27;;;21.80;99.90;;;;;;4390032;32;20809;-63
2021/07/05 08:34:04;;;;;;;14.37;7.80;;;21.40;99.90;;;;;;4390127;32;20446;-64
2021/07/05 08:36:31;;;;;;;15.53;8.47;;;21.50;99.90;;;;;;4390515;32;20181;-63
2021/07/05 08:38:58;;;;;;;18.37;8.77;;;21.70;99.90;;;;;;4391492;32;20498;-62
2021/07/05 08:41:25;;;;;;;17.70;8.20;;;21.50;99.90;;;;;;4392516;32;20166;-62
2021/07/05 08:43:53;;;;;;;16.13;7.90;;;21.40;99.90;;;;;;4391563;32;20152;-63
2021/07/05 08:46:21;;;;;;;13.10;7.13;;;22.20;99.90;;;;;;4392308;32;20148;-62
2021/07/05 08:48:49;;;;;;;13.10;6.57;;;24.40;99.90;;;;;;4390523;32;20220;-66
2021/07/05 08:51:18;;;;;;;13.60;6.53;;;28.00;99.50;;;;;;4392153;32;20173;-64
2021/07/05 08:53:46;;;;;;;7.85;5.57;;;31.60;91.90;;;;;;4393050;32;20141;-65
2021/07/05 08:56:14;;;;;;;10.02;5.18;;;33.60;84.80;;;;;;4392684;32;20231;-65
2021/07/05 08:58:42;;;;;;;11.57;5.55;;;34.00;76.00;;;;;;4386651;32;20609;-65
2021/07/05 09:01:10;;;;;;;10.20;5.25;;;32.20;74.30;;;;;;4392076;32;20219;-64
2021/07/05 09:03:39;;;;;;;12.68;5.95;;;30.00;79.80;;;;;;4392374;32;20198;-66
2021/07/05 09:06:11;;;;;;;14.23;6.80;;;28.10;87.80;;;;;;4392305;32;20168;-65
2021/07/05 09:08:39;;;;;;;14.40;6.25;;;27.60;86.50;;;;;;4385203;32;20192;-64
2021/07/05 09:11:08;;;;;;;12.57;5.72;;;26.70;90.00;;;;;;4390451;32;20183;-63
2021/07/05 09:13:46;;;;;;;10.05;4.97;;;27.00;92.30;;;;;;4391966;32;20579;-64
2021/07/05 09:16:13;;;;;;;11.73;5.12;;;27.40;91.50;;;;;;4391850;32;20155;-64
2021/07/05 09:18:46;;;;;;;9.32;6.10;;;27.80;90.40;;;;;;4388106;32;20225;-66
2021/07/05 09:21:19;;;;;;;9.65;5.93;;;27.60;90.20;;;;;;4390430;32;20568;-65
2021/07/05 09:24:02;;;;;;;7.75;4.87;;;27.50;90.30;;;;;;4374250;32;20200;-64
2021/07/05 09:26:43;;;;;;;10.35;5.12;;;26.80;89.70;;;;;;4373483;32;20650;-65
2021/07/05 09:29:21;;;;;;;8.63;6.17;;;26.50;90.50;;;;;;4379646;32;20174;-64
2021/07/05 09:31:52;;;;;;;8.20;5.28;;;26.70;90.70;;;;;;4386504;32;20516;-64
2021/07/05 09:34:23;;;;;;;8.45;5.07;;;26.50;90.90;;;;;;4378168;32;20156;-65
2021/07/05 09:36:54;;;;;;;9.82;5.15;;;27.10;90.40;;;;;;4370981;32;20243;-64
2021/07/05 09:46:11;;;;;;;11.05;4.53;;;28.30;89.50;;;;;;4392481;32;20218;-64
2021/07/05 09:48:45;;;;;;;10.55;4.78;;;29.20;87.90;;;;;;4388897;32;20164;-65
2021/07/05 09:51:18;;;;;;;8.57;3.90;;;30.20;78.90;;;;;;4385247;32;20175;-62
2021/07/05 09:53:48;;;;;;;9.10;4.20;;;29.50;82.40;;;;;;4391989;32;20144;-63
2021/07/05 09:56:20;;;;;;;8.73;4.40;;;27.80;86.20;;;;;;4391168;32;20189;-64
2021/07/05 09:58:50;;;;;;;11.17;5.03;;;26.30;90.20;;;;;;4390804;32;20525;-62
2021/07/05 10:01:40;;;;;;;9.00;5.15;;;25.00;93.30;;;;;;4388385;32;20600;-64
2021/07/05 10:04:13;;;;;;;8.60;6.00;;;24.20;95.30;;;;;;4391517;32;20141;-64
2021/07/05 10:06:43;;;;;;;10.63;6.22;;;24.30;96.30;;;;;;4390839;32;20235;-64
2021/07/05 10:09:11;;;;;;;13.65;5.57;;;25.30;94.80;;;;;;4391155;32;20597;-64
2021/07/05 10:11:41;;;;;;;11.77;6.20;;;26.70;94.80;;;;;;4390599;32;20211;-65
2021/07/05 10:14:13;;;;;;;14.13;6.07;;;27.00;92.60;;;;;;4391423;32;20166;-64
2021/07/05 10:16:42;;;;;;;11.88;6.55;;;26.10;92.30;;;;;;4390743;32;20175;-64
2021/07/05 10:19:12;;;;;;;10.07;6.43;;;24.90;93.80;;;;;;4391853;32;20259;-64
2021/07/05 10:21:42;;;;;;;9.03;6.33;;;24.30;95.40;;;;;;4378850;32;20180;-64
2021/07/05 10:24:11;;;;;;;11.67;5.57;;;24.40;95.50;;;;;;4390360;32;20157;-64
2021/07/05 10:26:43;;;;;;;7.57;4.83;;;25.00;95.20;;;;;;4391102;32;20144;-64
2021/07/05 10:29:17;;;;;;;9.33;4.93;;;25.40;94.20;;;;;;4390673;32;20551;-64
2021/07/05 10:31:44;;;;;;;8.97;5.40;;;25.40;93.80;;;;;;4380101;32;20200;-63
2021/07/05 10:34:11;;;;;;;8.67;5.10;;;25.30;93.70;;;;;;4391299;32;20136;-65
2021/07/05 10:36:42;;;;;;;10.20;5.07;;;25.00;95.00;;;;;;4392718;32;20454;-64
2021/07/05 10:39:11;;;;;;;7.73;4.47;;;25.00;95.10;;;;;;4391324;32;20175;-65
2021/07/05 10:41:41;;;;;;;9.37;4.33;;;24.90;95.90;;;;;;4389104;32;20172;-65
2021/07/05 10:44:10;;;;;;;10.20;5.13;;;24.90;95.10;;;;;;4391447;32;20583;-65
2021/07/05 10:46:48;;;;;;;11.00;4.80;;;24.60;95.10;;;;;;4391498;32;20203;-64
2021/07/05 10:50:01;;;;;;;10.57;5.07;;;24.40;95.40;;;;;;4392749;32;20143;-65
2021/07/05 10:52:48;;;;;;;12.90;5.73;;;24.70;95.20;;;;;;4390299;32;20140;-65
2021/07/05 10:55:37;;;;;;;7.67;4.63;;;24.40;95.10;;;;;;4391091;32;20148;-65
2021/07/05 10:58:07;;;;;;;9.77;5.07;;;24.20;95.40;;;;;;4391346;32;20164;-64
2021/07/05 11:10:43;;;;;;;9.03;5.37;;;23.70;97.30;;;;;;4382638;32;20159;-64
2021/07/05 11:13:10;;;;;;;10.27;5.30;;;23.40;98.30;;;;;;4382735;32;20564;-62
2021/07/05 11:15:55;;;;;;;12.57;5.77;;;23.20;98.40;;;;;;4390456;32;20174;-64
2021/07/05 11:19:10;;;;;;;10.63;6.00;;;23.70;98.00;;;;;;4390604;32;20139;-64
2021/07/05 11:21:57;;;;;;;11.40;5.60;;;23.70;97.10;;;;;;4389367;32;20148;-63
2021/07/05 11:24:38;;;;;;;10.47;6.27;;;23.80;97.30;;;;;;4389723;32;20143;-64
2021/07/05 11:27:29;;;;;;;10.33;4.93;;;23.90;96.90;;;;;;4390753;32;20141;-64
2021/07/05 11:29:57;;;;;;;8.80;5.97;;;24.40;96.80;;;;;;4390326;32;20144;-64
2021/07/05 11:32:35;;;;;;;10.97;6.47;;;24.50;96.80;;;;;;4382642;32;20175;-63
2021/07/05 11:35:03;;;;;;;10.67;6.67;;;23.90;96.80;;;;;;4390374;32;20168;-63
2021/07/05 11:37:34;;;;;;;11.67;6.27;;;23.10;98.50;;;;;;4390519;32;20246;-61
2021/07/05 11:40:01;;;;;;;11.67;6.17;;;22.50;99.90;;;;;;4390324;32;20996;-63
2021/07/05 11:43:04;;;;;;;10.40;6.00;;;22.10;99.90;;;;;;4382545;32;20461;-63
2021/07/05 11:45:47;;;;;;;10.70;6.20;;;21.60;99.90;;;;;;4383734;32;20160;-63
2021/07/05 11:48:54;;;;;;;10.57;5.53;;;21.00;99.90;;;;;;4390260;32;20144;-63
2021/07/05 11:51:28;;;;;;;13.00;5.83;;;20.60;99.90;;;;;;4389375;32;20140;-63
2021/07/05 11:54:00;;;;;;;15.73;6.63;;;20.80;99.90;;;;;;4388357;32;20144;-64
2021/07/05 11:56:36;;;;;;;12.73;5.17;;;20.90;99.90;;;;;;4389861;32;20214;-62
2021/07/05 11:59:06;;;;;;;6.87;3.70;;;20.90;99.90;;;;;;4390395;32;20160;-63
2021/07/05 12:01:35;;;;;;;5.67;3.50;;;20.80;99.90;;;;;;4380052;32;20555;-63
2021/07/05 12:04:03;;;;;;;10.07;5.10;;;20.80;99.90;;;;;;4388849;32;20163;-63
2021/07/05 12:06:30;;;;;;;6.40;4.00;;;20.50;99.90;;;;;;4386596;32;20225;-64
2021/07/05 12:08:59;;;;;;;8.87;4.60;;;20.00;99.90;;;;;;4389027;32;20148;-64
2021/07/05 12:11:35;;;;;;;6.43;4.73;;;19.70;99.90;;;;;;4387364;32;20496;-63
2021/07/05 12:14:07;;;;;;;5.60;4.43;;;19.70;99.90;;;;;;4388355;32;20219;-64
2021/07/05 12:16:36;;;;;;;8.37;4.53;;;19.80;99.90;;;;;;4389287;32;20602;-62
2021/07/05 12:19:04;;;;;;;6.87;4.33;;;20.40;99.90;;;;;;4389485;32;20152;-62
2021/07/05 12:21:33;;;;;;;5.53;4.33;;;21.10;99.90;;;;;;4389400;32;20503;-63
2021/07/05 12:24:26;;;;;;;7.80;4.97;;;21.60;99.90;;;;;;4388627;32;20164;-61
2021/07/05 12:26:57;;;;;;;5.90;4.30;;;21.80;99.90;;;;;;4371457;32;20579;-62
2021/07/05 12:29:27;;;;;;;7.07;4.60;;;22.40;99.90;;;;;;4371922;32;20167;-60
2021/07/05 12:32:08;;;;;;;6.60;4.60;;;22.70;99.90;;;;;;4372296;32;20157;-62
2021/07/05 12:34:41;;;;;;;5.40;3.60;;;22.70;99.90;;;;;;4369533;32;20242;-65
2021/07/05 12:37:13;;;;;;;6.50;3.60;;;22.70;99.90;;;;;;4370929;32;20546;-64
2021/07/05 12:39:48;;;;;;;5.80;3.93;;;23.00;99.90;;;;;;4372414;32;20196;-64
2021/07/05 12:42:23;;;;;;;4.83;3.40;;;23.30;99.90;;;;;;4362065;32;20536;-63
2021/07/05 12:44:50;;;;;;;6.80;3.37;;;23.30;99.90;;;;;;4366188;32;20180;-63
2021/07/05 12:47:18;;;;;;;5.03;2.90;;;23.60;99.90;;;;;;4372337;32;20236;-63
2021/07/05 12:49:46;;;;;;;5.80;3.87;;;23.60;99.90;;;;;;4372287;32;20148;-62
2021/07/05 12:52:49;;;;;;;6.17;3.67;;;23.10;99.40;;;;;;4371439;32;20215;-62
2021/07/05 12:55:17;;;;;;;5.43;2.90;;;23.00;99.90;;;;;;4370814;32;20637;-62
2021/07/05 12:57:55;;;;;;;2.90;2.13;;;22.90;99.90;;;;;;4372584;32;20167;-64
2021/07/05 13:00:24;;;;;;;2.80;2.10;;;22.60;99.90;;;;;;4370701;32;20598;-65
2021/07/05 13:02:53;;;;;;;3.07;2.57;;;22.80;99.90;;;;;;4371235;32;20156;-65
2021/07/05 13:05:22;;;;;;;3.20;1.90;;;22.70;99.90;;;;;;4387237;32;20184;-65
2021/07/05 13:07:55;;;;;;;3.23;1.90;;;22.90;99.90;;;;;;4387098;32;20160;-64